Time;durP1;ratioP1;P1;durP2;ratioP2;P2;SDS_P1;SDS_P2;PMS_P1;PMS_P2;Temp;Humidity;BMP_temperature;BMP_pressure;BME280_temperature;BME280_humidity;BME280_pressure;Samples;Min_cycle;Max_cycle;Signal;HPM_P1;HPM_P2
2022/08/13 00:01:15;;;;;;;4.95;1.05;;;15.40;99.90;;;;;;5074370;28;20020;-79
2022/08/13 00:03:43;;;;;;;1.70;1.20;;;15.40;99.90;;;;;;5074233;28;20459;-79
2022/08/13 00:06:10;;;;;;;1.20;1.10;;;15.40;99.90;;;;;;5074705;28;20017;-79
2022/08/13 00:08:38;;;;;;;2.78;1.63;;;15.40;99.90;;;;;;5074412;28;20034;-80
2022/08/13 00:11:05;;;;;;;1.33;1.10;;;15.40;99.90;;;;;;5074283;28;20077;-79
2022/08/13 00:13:33;;;;;;;2.08;1.00;;;15.40;99.90;;;;;;5074357;28;20032;-79
2022/08/13 00:15:59;;;;;;;1.35;1.15;;;15.40;99.90;;;;;;5074116;28;20012;-78
2022/08/13 00:18:26;;;;;;;1.50;1.23;;;15.40;99.90;;;;;;5078538;28;20038;-79
2022/08/13 00:20:56;;;;;;;1.80;1.17;;;15.40;99.90;;;;;;5096523;28;20052;-78
2022/08/13 00:23:24;;;;;;;1.55;1.10;;;15.30;99.90;;;;;;5078220;28;20036;-80
2022/08/13 00:25:54;;;;;;;1.45;1.02;;;15.30;99.90;;;;;;5078601;28;20024;-79
2022/08/13 00:28:22;;;;;;;1.83;1.27;;;15.30;99.90;;;;;;5096919;28;20031;-80
2022/08/13 00:30:48;;;;;;;2.45;0.88;;;15.30;99.90;;;;;;5078153;28;20016;-81
2022/08/13 00:33:21;;;;;;;1.35;1.25;;;15.30;99.90;;;;;;5077972;28;20020;-80
2022/08/13 00:35:50;;;;;;;2.22;1.08;;;15.30;99.90;;;;;;5096187;28;20095;-78
2022/08/13 00:38:22;;;;;;;1.45;1.35;;;15.30;99.90;;;;;;5096632;28;20070;-80
2022/08/13 00:40:53;;;;;;;1.33;1.15;;;15.20;99.90;;;;;;5078642;28;20016;-79
2022/08/13 00:43:19;;;;;;;1.50;1.40;;;15.20;99.90;;;;;;5077926;28;20043;-79
2022/08/13 00:45:46;;;;;;;1.25;1.15;;;15.20;99.90;;;;;;5078117;28;20024;-79
2022/08/13 00:50:57;;;;;;;2.42;1.10;;;15.20;99.90;;;;;;5096895;28;20050;-79
2022/08/13 00:53:25;;;;;;;3.45;1.30;;;15.20;99.90;;;;;;5077989;28;20094;-80
2022/08/13 00:55:56;;;;;;;1.15;1.05;;;15.20;99.90;;;;;;5078089;28;20016;-79
2022/08/13 00:58:23;;;;;;;1.52;1.42;;;15.20;99.90;;;;;;5077659;28;20483;-79
2022/08/13 01:00:51;;;;;;;4.32;1.00;;;15.10;99.90;;;;;;5077809;28;20024;-79
2022/08/13 01:03:20;;;;;;;1.15;1.02;;;15.10;99.90;;;;;;5095918;28;20043;-79
2022/08/13 01:05:47;;;;;;;4.18;1.27;;;15.00;99.90;;;;;;5077995;28;20178;-79
2022/08/13 01:08:19;;;;;;;1.20;1.10;;;15.10;99.90;;;;;;5077716;28;20082;-78
2022/08/13 01:10:48;;;;;;;3.80;1.00;;;15.00;99.90;;;;;;5077550;28;20497;-79
2022/08/13 01:13:16;;;;;;;0.88;0.88;;;15.00;99.90;;;;;;5077730;28;20028;-79
2022/08/13 01:15:43;;;;;;;1.42;1.33;;;15.00;99.90;;;;;;5077341;28;20060;-78
2022/08/13 01:18:13;;;;;;;1.30;1.20;;;15.10;99.90;;;;;;5077484;28;20043;-78
2022/08/13 01:20:48;;;;;;;1.50;1.40;;;15.10;99.90;;;;;;5077321;28;20048;-79
2022/08/13 01:23:15;;;;;;;5.25;1.80;;;15.10;99.90;;;;;;5077279;28;20028;-79
2022/08/13 01:25:42;;;;;;;2.65;1.42;;;15.20;99.90;;;;;;5095529;28;20069;-79
2022/08/13 01:28:08;;;;;;;1.38;1.13;;;15.20;99.90;;;;;;5076407;28;20077;-78
2022/08/13 01:30:34;;;;;;;2.08;1.38;;;15.20;99.90;;;;;;5077251;28;20047;-80
2022/08/13 01:33:02;;;;;;;3.70;1.73;;;15.30;99.90;;;;;;5095545;28;20020;-79
2022/08/13 01:35:29;;;;;;;1.80;1.38;;;15.30;99.90;;;;;;5095317;28;20019;-78
2022/08/13 01:37:57;;;;;;;1.30;1.20;;;15.20;99.90;;;;;;5077133;28;20059;-79
2022/08/13 01:40:24;;;;;;;2.90;1.45;;;15.20;99.90;;;;;;5077205;28;20016;-79
2022/08/13 01:42:51;;;;;;;4.72;1.10;;;15.20;99.90;;;;;;5095095;28;20039;-79
2022/08/13 01:45:18;;;;;;;4.05;1.17;;;15.10;99.90;;;;;;5095247;28;20073;-79
2022/08/13 01:50:30;;;;;;;1.25;1.15;;;15.00;99.90;;;;;;5095424;28;20078;-79
2022/08/13 01:53:01;;;;;;;1.73;1.08;;;15.10;99.90;;;;;;5077273;28;20050;-80
2022/08/13 01:55:39;;;;;;;1.05;1.00;;;15.10;99.90;;;;;;5076603;28;20115;-78
2022/08/13 01:58:31;;;;;;;1.02;1.02;;;15.10;99.90;;;;;;5076610;28;20032;-79
2022/08/13 02:01:01;;;;;;;1.40;1.00;;;15.10;99.90;;;;;;5072331;28;20067;-78
2022/08/13 02:03:27;;;;;;;2.67;1.30;;;15.00;99.90;;;;;;5095194;28;20063;-78
2022/08/13 02:05:53;;;;;;;1.27;1.08;;;15.00;99.90;;;;;;5076768;28;20058;-79
2022/08/13 02:08:20;;;;;;;3.28;1.10;;;15.00;99.90;;;;;;5076698;28;20375;-78
2022/08/13 02:10:49;;;;;;;2.33;1.10;;;14.90;99.90;;;;;;5094816;28;20028;-78
2022/08/13 02:13:18;;;;;;;2.22;1.25;;;14.90;99.90;;;;;;5094749;28;20077;-79
2022/08/13 02:15:46;;;;;;;1.13;0.95;;;14.90;99.90;;;;;;5076388;28;20063;-79
2022/08/13 02:18:16;;;;;;;3.30;1.50;;;14.80;99.90;;;;;;5076520;28;20028;-79
2022/08/13 02:20:44;;;;;;;2.05;1.40;;;14.80;99.90;;;;;;5076442;28;20661;-79
2022/08/13 02:23:14;;;;;;;2.15;0.93;;;14.80;99.90;;;;;;5076444;28;20043;-79
2022/08/13 02:25:41;;;;;;;3.72;1.10;;;14.80;99.90;;;;;;5076212;28;20024;-79
2022/08/13 02:28:10;;;;;;;1.33;1.23;;;14.80;99.90;;;;;;5076265;28;20077;-79
2022/08/13 02:30:36;;;;;;;1.58;1.15;;;14.90;99.90;;;;;;5076737;28;20111;-78
2022/08/13 02:33:05;;;;;;;3.42;1.27;;;14.90;99.90;;;;;;5076651;28;20103;-79
2022/08/13 02:35:31;;;;;;;3.75;1.30;;;14.90;99.90;;;;;;5076273;28;20501;-78
2022/08/13 02:37:57;;;;;;;1.90;1.42;;;15.00;99.90;;;;;;5076193;28;20099;-79
2022/08/13 02:43:06;;;;;;;1.52;1.33;;;15.20;99.90;;;;;;5094519;28;20399;-79
2022/08/13 02:45:32;;;;;;;5.43;1.25;;;15.20;99.90;;;;;;5076270;28;20020;-80
2022/08/13 02:47:58;;;;;;;0.90;0.90;;;15.30;99.90;;;;;;5076139;28;20032;-78
2022/08/13 02:50:25;;;;;;;1.95;1.20;;;15.30;99.90;;;;;;5076213;28;20051;-79
2022/08/13 02:52:52;;;;;;;1.02;0.95;;;15.30;99.90;;;;;;5076281;28;20123;-79
2022/08/13 02:55:22;;;;;;;1.80;1.42;;;15.40;99.90;;;;;;5076097;28;20023;-78
2022/08/13 02:57:49;;;;;;;1.75;0.95;;;15.40;99.90;;;;;;5080073;28;20020;-78
2022/08/13 03:00:17;;;;;;;2.22;1.10;;;15.50;99.90;;;;;;5081403;28;20035;-78
2022/08/13 03:02:44;;;;;;;1.63;1.30;;;15.50;99.90;;;;;;5076467;28;20114;-79
2022/08/13 03:05:12;;;;;;;1.73;1.40;;;15.60;99.90;;;;;;5075871;28;20047;-79
2022/08/13 03:07:41;;;;;;;1.33;1.17;;;15.60;99.90;;;;;;5076035;28;20016;-78
2022/08/13 03:10:11;;;;;;;5.00;2.50;;;15.60;99.90;;;;;;5075995;28;20485;-79
2022/08/13 03:12:47;;;;;;;1.05;1.05;;;15.70;99.90;;;;;;5094294;28;20012;-78
2022/08/13 03:15:13;;;;;;;;;;;15.70;99.90;;;;;;5075868;28;20026;-79
2022/08/13 03:17:40;;;;;;;3.55;0.93;;;15.70;99.90;;;;;;5093953;28;19904;-80
2022/08/13 03:20:09;;;;;;;1.42;1.33;;;15.60;99.90;;;;;;5075243;28;20487;-79
2022/08/13 03:22:56;;;;;;;1.27;1.15;;;15.60;99.90;;;;;;5075049;28;20128;-80
2022/08/13 03:25:25;;;;;;;0.98;0.98;;;15.60;99.90;;;;;;5075258;28;20109;-79
2022/08/13 03:27:52;;;;;;;1.50;1.08;;;15.50;99.90;;;;;;5075121;28;20024;-78
2022/08/13 03:30:21;;;;;;;1.63;1.48;;;15.50;99.90;;;;;;5075183;28;20472;-79
2022/08/13 03:32:47;;;;;;;2.90;1.33;;;15.50;99.90;;;;;;5074793;28;20099;-80
2022/08/13 03:35:19;;;;;;;1.35;1.25;;;15.50;99.90;;;;;;5093203;28;20028;-81
2022/08/13 03:37:47;;;;;;;1.60;1.00;;;15.40;99.90;;;;;;5074918;28;20024;-80
2022/08/13 03:40:15;;;;;;;1.63;1.10;;;15.50;99.90;;;;;;5074881;28;20024;-79
2022/08/13 03:42:42;;;;;;;2.25;1.20;;;15.50;99.90;;;;;;5093058;28;20399;-80
2022/08/13 03:45:10;;;;;;;2.50;1.27;;;15.50;99.90;;;;;;5092869;28;20020;-79
2022/08/13 03:47:37;;;;;;;4.00;2.50;;;15.50;99.90;;;;;;5074604;28;20024;-78
2022/08/13 03:50:06;;;;;;;3.45;3.15;;;15.50;99.90;;;;;;5074666;28;20030;-79
2022/08/13 03:52:33;;;;;;;6.32;1.83;;;15.50;99.90;;;;;;5073943;28;20016;-78
2022/08/13 03:54:59;;;;;;;6.15;2.08;;;15.50;99.90;;;;;;5075139;28;20035;-79
2022/08/13 03:57:25;;;;;;;1.67;1.30;;;15.50;99.90;;;;;;5074462;28;20031;-81
2022/08/13 03:59:51;;;;;;;1.42;1.33;;;15.40;99.90;;;;;;5074347;28;20024;-79
2022/08/13 04:02:17;;;;;;;1.48;1.38;;;15.50;99.90;;;;;;5074291;28;20103;-80
2022/08/13 04:04:46;;;;;;;2.17;1.30;;;15.50;99.90;;;;;;5074738;28;20376;-79
2022/08/13 04:07:17;;;;;;;1.98;1.80;;;15.50;99.90;;;;;;5074628;28;20028;-80
2022/08/13 04:09:44;;;;;;;5.65;1.38;;;15.50;99.90;;;;;;5074700;28;20024;-80
2022/08/13 04:12:12;;;;;;;6.28;1.67;;;15.50;99.90;;;;;;5074336;28;20028;-80
2022/08/13 04:14:42;;;;;;;3.15;1.23;;;15.60;99.90;;;;;;5074503;28;20498;-79
2022/08/13 04:17:10;;;;;;;5.07;1.13;;;15.60;99.90;;;;;;5092936;28;20024;-81
2022/08/13 04:19:37;;;;;;;4.10;1.73;;;15.60;99.90;;;;;;5074090;28;20044;-79
2022/08/13 04:22:05;;;;;;;9.00;1.27;;;15.60;99.90;;;;;;5074178;28;20036;-80
2022/08/13 04:24:30;;;;;;;2.60;1.45;;;15.70;99.90;;;;;;5074064;28;20028;-78
2022/08/13 04:26:58;;;;;;;1.35;1.25;;;16.00;99.90;;;;;;5074101;28;20374;-79
2022/08/13 04:29:24;;;;;;;3.47;1.00;;;16.40;99.90;;;;;;5075240;28;20032;-75
2022/08/13 04:31:50;;;;;;;1.65;1.02;;;17.40;99.90;;;;;;5073847;28;20379;-77
2022/08/13 04:34:21;;;;;;;2.65;1.35;;;17.30;99.90;;;;;;5094379;28;20554;-77
2022/08/13 04:36:48;;;;;;;1.10;1.08;;;17.70;99.90;;;;;;5094171;28;20100;-77
2022/08/13 04:39:14;;;;;;;8.85;1.02;;;18.00;99.90;;;;;;5095905;28;20021;-76
2022/08/13 04:41:40;;;;;;;1.23;1.00;;;18.20;99.90;;;;;;5074183;28;20089;-78
2022/08/13 04:44:05;;;;;;;1.23;1.00;;;18.40;99.90;;;;;;5073731;28;20506;-78
2022/08/13 04:46:31;;;;;;;1.38;1.27;;;18.40;99.90;;;;;;5074022;28;20028;-78
2022/08/13 04:48:57;;;;;;;2.03;1.35;;;18.40;99.90;;;;;;5074257;28;20024;-78
2022/08/13 04:51:25;;;;;;;0.80;0.80;;;18.30;99.90;;;;;;5092054;28;20081;-79
2022/08/13 04:53:52;;;;;;;1.80;1.13;;;18.30;99.90;;;;;;5074117;28;20024;-78
2022/08/13 04:56:18;;;;;;;1.33;1.20;;;18.40;99.90;;;;;;5074010;28;20486;-77
2022/08/13 04:58:44;;;;;;;3.70;1.38;;;18.50;99.90;;;;;;5091962;28;20028;-78
2022/08/13 05:01:11;;;;;;;2.85;0.82;;;18.70;99.90;;;;;;5074120;28;20478;-79
2022/08/13 05:03:47;;;;;;;1.42;1.08;;;18.70;99.90;;;;;;5074540;28;20046;-77
2022/08/13 05:06:21;;;;;;;1.95;1.23;;;18.70;99.90;;;;;;5077602;28;20416;-78
2022/08/13 05:08:48;;;;;;;0.98;0.90;;;18.60;99.90;;;;;;5077671;28;20605;-78
2022/08/13 05:11:15;;;;;;;1.85;1.00;;;18.50;99.90;;;;;;5095885;28;20024;-78
2022/08/13 05:13:43;;;;;;;3.70;1.48;;;18.60;99.90;;;;;;5095716;28;20023;-78
2022/08/13 05:16:12;;;;;;;1.83;1.35;;;18.70;99.90;;;;;;5077244;28;20024;-78
2022/08/13 05:18:42;;;;;;;3.17;1.00;;;18.60;99.90;;;;;;5077328;28;20165;-78
2022/08/13 05:21:11;;;;;;;6.50;1.83;;;18.50;99.90;;;;;;5077282;28;20139;-78
2022/08/13 05:23:39;;;;;;;3.03;1.65;;;18.60;99.90;;;;;;5077411;28;20062;-78
2022/08/13 05:26:06;;;;;;;2.22;1.25;;;18.50;99.90;;;;;;5077377;28;20027;-77
2022/08/13 05:28:32;;;;;;;3.58;1.55;;;18.70;99.90;;;;;;5095543;28;20028;-77
2022/08/13 05:30:59;;;;;;;1.55;1.40;;;18.50;99.90;;;;;;5095463;28;20023;-77
2022/08/13 05:33:27;;;;;;;3.05;1.63;;;18.30;99.90;;;;;;5076938;28;20063;-78
2022/08/13 05:35:59;;;;;;;1.63;1.10;;;18.30;99.90;;;;;;5077067;28;20024;-76
2022/08/13 05:38:27;;;;;;;1.98;1.13;;;18.30;99.90;;;;;;5076946;28;20032;-77
2022/08/13 05:40:55;;;;;;;3.95;2.40;;;18.20;99.90;;;;;;5076947;28;20061;-77
2022/08/13 05:43:24;;;;;;;1.25;1.15;;;18.30;99.90;;;;;;5077048;28;20036;-77
2022/08/13 05:45:57;;;;;;;1.42;1.30;;;18.50;99.90;;;;;;5094943;28;20047;-76
2022/08/13 05:48:55;;;;;;;2.78;1.58;;;18.60;99.90;;;;;;5076705;28;20471;-77
2022/08/13 05:51:24;;;;;;;2.55;1.42;;;18.60;99.90;;;;;;5076766;28;20028;-76
2022/08/13 05:53:54;;;;;;;2.08;1.88;;;18.60;99.90;;;;;;5094778;28;20519;-76
2022/08/13 05:56:24;;;;;;;2.97;1.40;;;18.60;99.90;;;;;;5076456;28;20017;-76
2022/08/13 05:58:51;;;;;;;5.90;1.48;;;18.60;99.90;;;;;;5077011;28;20077;-76
2022/08/13 06:04:14;;;;;;;1.65;1.40;;;18.60;99.90;;;;;;5094676;28;20530;-78
2022/08/13 06:06:41;;;;;;;1.65;1.25;;;18.60;99.90;;;;;;5076658;28;20113;-79
2022/08/13 06:09:08;;;;;;;1.42;1.33;;;18.60;99.90;;;;;;5076274;28;20028;-77
2022/08/13 06:11:34;;;;;;;1.60;1.50;;;18.60;99.90;;;;;;5094431;28;20442;-77
2022/08/13 06:14:00;;;;;;;7.47;2.90;;;18.50;99.90;;;;;;5093075;28;20028;-77
2022/08/13 06:16:28;;;;;;;2.92;2.72;;;18.50;99.90;;;;;;5075664;28;20035;-78
2022/08/13 06:18:57;;;;;;;2.85;2.28;;;18.70;99.90;;;;;;5094276;28;20032;-78
2022/08/13 06:21:24;;;;;;;3.42;1.45;;;18.70;99.90;;;;;;5094155;28;20105;-78
2022/08/13 06:23:51;;;;;;;1.83;1.50;;;18.70;99.90;;;;;;5075912;28;20044;-78
2022/08/13 06:26:19;;;;;;;1.55;1.38;;;18.60;99.90;;;;;;5075866;28;20020;-79
2022/08/13 06:28:46;;;;;;;2.38;1.95;;;18.60;99.90;;;;;;5076052;28;20076;-79
2022/08/13 06:31:16;;;;;;;2.58;1.88;;;18.60;99.90;;;;;;5076017;28;20447;-78
2022/08/13 06:33:43;;;;;;;2.58;1.35;;;18.60;99.90;;;;;;5076227;28;20034;-78
2022/08/13 06:36:11;;;;;;;1.60;1.40;;;18.70;99.90;;;;;;5075903;28;20372;-77
2022/08/13 06:38:48;;;;;;;1.08;1.08;;;18.70;99.90;;;;;;5075620;28;20024;-77
2022/08/13 06:41:14;;;;;;;1.63;1.52;;;18.80;99.90;;;;;;5075728;28;20019;-77
2022/08/13 06:43:47;;;;;;;1.92;1.40;;;18.90;99.90;;;;;;5075518;28;20697;-77
2022/08/13 06:46:13;;;;;;;3.47;1.50;;;19.10;99.90;;;;;;5075404;28;20024;-76
2022/08/13 06:48:39;;;;;;;2.83;1.60;;;19.30;99.90;;;;;;5093458;28;20058;-76
2022/08/13 06:51:07;;;;;;;3.72;1.58;;;19.50;99.90;;;;;;5075492;28;20463;-77
2022/08/13 06:53:35;;;;;;;4.05;1.90;;;19.70;99.90;;;;;;5075328;28;20035;-78
2022/08/13 06:56:06;;;;;;;1.65;1.48;;;19.90;99.90;;;;;;5075396;28;20152;-77
2022/08/13 06:58:34;;;;;;;2.88;1.60;;;20.00;99.70;;;;;;5075603;28;20034;-76
2022/08/13 07:01:01;;;;;;;1.17;0.93;;;20.20;98.80;;;;;;5076070;28;20024;-78
2022/08/13 07:03:28;;;;;;;1.55;1.25;;;20.30;97.90;;;;;;5075542;28;20226;-78
2022/08/13 07:05:56;;;;;;;1.48;1.20;;;20.40;97.00;;;;;;5076154;28;20097;-78
2022/08/13 07:08:27;;;;;;;2.92;1.98;;;20.60;97.10;;;;;;5075632;28;20028;-79
2022/08/13 07:13:51;;;;;;;1.60;0.95;;;20.80;96.30;;;;;;5094002;28;20035;-78
2022/08/13 07:16:18;;;;;;;1.83;1.50;;;21.00;95.70;;;;;;5075452;28;20024;-78
2022/08/13 07:18:49;;;;;;;2.90;1.73;;;21.20;95.70;;;;;;5075946;28;20073;-77
2022/08/13 07:21:19;;;;;;;2.67;1.30;;;21.30;94.80;;;;;;5075050;28;20494;-77
2022/08/13 07:23:46;;;;;;;3.88;1.40;;;21.30;93.90;;;;;;5092609;28;20071;-79
2022/08/13 07:26:13;;;;;;;1.13;1.02;;;21.50;93.70;;;;;;5093263;28;20043;-77
2022/08/13 07:28:40;;;;;;;0.98;0.98;;;21.60;93.50;;;;;;5093473;28;20047;-77
2022/08/13 07:31:06;;;;;;;2.55;1.00;;;21.70;93.40;;;;;;5074819;28;20020;-78
2022/08/13 07:33:37;;;;;;;1.05;1.05;;;21.70;92.80;;;;;;5093772;28;20467;-74
2022/08/13 07:36:11;;;;;;;1.60;1.10;;;21.90;92.80;;;;;;5093187;28;20055;-73
2022/08/13 07:38:36;;;;;;;2.05;1.67;;;21.90;92.80;;;;;;5093698;28;20031;-75
2022/08/13 07:41:03;;;;;;;1.58;1.35;;;22.10;92.00;;;;;;5093294;28;20024;-73
2022/08/13 07:43:36;;;;;;;2.55;1.45;;;22.20;91.40;;;;;;5075717;28;20391;-74
2022/08/13 07:46:10;;;;;;;1.27;1.17;;;22.40;91.10;;;;;;5093341;28;20027;-73
2022/08/13 07:48:38;;;;;;;2.63;2.42;;;22.50;90.60;;;;;;5093424;28;20484;-76
2022/08/13 07:51:07;;;;;;;1.75;1.60;;;22.70;90.40;;;;;;5093168;28;20020;-72
2022/08/13 07:53:35;;;;;;;1.58;1.30;;;22.70;90.30;;;;;;5094122;28;20027;-75
2022/08/13 07:56:04;;;;;;;1.42;1.33;;;22.80;89.90;;;;;;5093596;28;20020;-73
2022/08/13 07:58:33;;;;;;;1.52;1.25;;;22.90;89.90;;;;;;5093699;28;20016;-73
2022/08/13 08:01:00;;;;;;;1.05;0.98;;;22.90;90.20;;;;;;5075269;28;20497;-78
2022/08/13 08:03:41;;;;;;;6.05;1.30;;;23.00;89.60;;;;;;5093262;28;20387;-73
2022/08/13 08:06:09;;;;;;;1.52;1.42;;;23.00;89.20;;;;;;5093347;28;20020;-76
2022/08/13 08:08:36;;;;;;;1.48;1.38;;;22.90;90.00;;;;;;5093106;28;20012;-76
2022/08/13 08:11:02;;;;;;;1.52;1.33;;;22.80;89.80;;;;;;5093392;28;20016;-74
2022/08/13 08:13:32;;;;;;;2.50;1.50;;;22.60;90.10;;;;;;5093238;28;20012;-76
2022/08/13 08:15:58;;;;;;;1.60;1.33;;;22.50;90.70;;;;;;5093297;28;20016;-76
2022/08/13 08:18:24;;;;;;;1.45;1.35;;;22.30;91.30;;;;;;5093225;28;20464;-78
2022/08/13 08:21:04;;;;;;;1.02;0.95;;;22.20;92.30;;;;;;5092875;28;20113;-76
2022/08/13 08:23:31;;;;;;;4.20;1.45;;;22.10;93.00;;;;;;5074895;28;20043;-77
2022/08/13 08:25:58;;;;;;;1.27;1.17;;;21.90;93.40;;;;;;5092639;28;20073;-75
2022/08/13 08:28:25;;;;;;;2.38;1.10;;;21.80;93.70;;;;;;5092698;28;20032;-74
2022/08/13 08:30:50;;;;;;;2.40;1.55;;;21.70;94.30;;;;;;5093077;28;20016;-74
2022/08/13 08:33:24;;;;;;;1.42;1.30;;;21.50;94.80;;;;;;5096086;28;20031;-75
2022/08/13 08:35:51;;;;;;;1.50;1.38;;;21.50;95.50;;;;;;5096908;28;20039;-76
2022/08/13 08:43:47;;;;;;;1.77;1.33;;;21.40;96.50;;;;;;5096802;28;20426;-74
2022/08/13 08:46:15;;;;;;;4.25;1.83;;;21.50;97.00;;;;;;5096556;28;20154;-75
2022/08/13 08:48:41;;;;;;;2.90;1.33;;;21.40;96.70;;;;;;5096484;28;20115;-75
2022/08/13 08:51:09;;;;;;;2.25;1.00;;;21.50;96.90;;;;;;5078640;28;20032;-75
2022/08/13 08:53:34;;;;;;;2.65;1.17;;;21.50;96.80;;;;;;5096757;28;20020;-75
2022/08/13 08:56:03;;;;;;;1.75;1.40;;;21.60;96.60;;;;;;5096544;28;20020;-77
2022/08/13 08:58:31;;;;;;;1.20;1.10;;;21.60;96.60;;;;;;5096243;28;20020;-76
2022/08/13 09:00:59;;;;;;;7.22;1.17;;;21.80;96.30;;;;;;5096269;28;20452;-77
2022/08/13 09:03:27;;;;;;;3.17;1.40;;;22.10;95.90;;;;;;5096491;28;20463;-75
2022/08/13 09:05:54;;;;;;;0.98;0.98;;;22.10;95.30;;;;;;5096236;28;20493;-77
2022/08/13 09:08:20;;;;;;;2.22;1.48;;;22.30;95.50;;;;;;5096063;28;20023;-79
2022/08/13 09:10:49;;;;;;;1.52;1.42;;;22.40;94.60;;;;;;5077763;28;20012;-78
2022/08/13 09:13:19;;;;;;;1.48;1.13;;;22.50;94.10;;;;;;5095751;28;20028;-78
2022/08/13 09:15:46;;;;;;;2.72;1.70;;;22.70;93.70;;;;;;5095946;28;20069;-79
2022/08/13 09:18:16;;;;;;;1.50;1.40;;;22.80;93.30;;;;;;5095906;28;20072;-78
2022/08/13 09:20:42;;;;;;;1.75;1.60;;;22.90;92.80;;;;;;5095898;28;20055;-78
2022/08/13 09:23:14;;;;;;;1.65;1.55;;;23.10;92.20;;;;;;5077361;28;20486;-78
2022/08/13 09:25:48;;;;;;;1.20;1.10;;;23.20;90.80;;;;;;5095587;28;20176;-79
2022/08/13 09:28:23;;;;;;;2.67;1.43;;;23.30;91.10;;;;;;5095522;28;20216;-80
2022/08/13 09:30:52;;;;;;;1.23;1.13;;;23.50;90.00;;;;;;5095306;28;20759;-77
2022/08/13 09:33:19;;;;;;;1.60;1.20;;;23.60;87.90;;;;;;5095345;28;20064;-78
2022/08/13 09:35:48;;;;;;;1.20;1.10;;;23.80;87.00;;;;;;5095221;28;20089;-78
2022/08/13 09:38:15;;;;;;;1.20;1.20;;;23.90;84.90;;;;;;5076899;28;20073;-78
2022/08/13 09:41:17;;;;;;;1.10;1.02;;;24.00;85.50;;;;;;5077039;28;20024;-77
2022/08/13 09:43:45;;;;;;;2.55;1.50;;;24.00;84.60;;;;;;5095082;28;20490;-77
2022/08/13 09:46:12;;;;;;;3.55;1.50;;;24.00;81.00;;;;;;5077012;28;20077;-78
2022/08/13 09:48:38;;;;;;;2.92;0.90;;;24.10;82.20;;;;;;5094707;28;20031;-78
2022/08/13 09:51:13;;;;;;;1.80;1.00;;;24.20;81.10;;;;;;5095073;28;20020;-79
2022/08/13 09:53:40;;;;;;;1.20;1.13;;;24.10;81.10;;;;;;5095385;28;20024;-79
2022/08/13 09:56:06;;;;;;;0.90;0.90;;;24.00;82.30;;;;;;5077110;28;20031;-79
2022/08/13 09:58:32;;;;;;;1.00;1.00;;;24.10;82.40;;;;;;5094802;28;20030;-79
2022/08/13 10:00:58;;;;;;;7.43;1.10;;;23.90;83.00;;;;;;5096348;28;20459;-77
2022/08/13 10:03:24;;;;;;;1.85;1.45;;;24.00;81.30;;;;;;5095174;28;20085;-77
2022/08/13 10:05:51;;;;;;;1.40;1.30;;;23.90;80.30;;;;;;5096437;28;20020;-79
2022/08/13 10:08:18;;;;;;;1.77;1.00;;;23.90;82.50;;;;;;5095493;28;20024;-81
2022/08/13 10:10:45;;;;;;;4.38;1.10;;;24.00;81.70;;;;;;5095570;28;20020;-79
2022/08/13 10:13:11;;;;;;;1.20;1.10;;;24.10;81.60;;;;;;5076363;28;20055;-78
2022/08/13 10:15:37;;;;;;;1.35;1.17;;;24.00;81.90;;;;;;5095230;28;20425;-80
2022/08/13 10:18:04;;;;;;;1.27;1.00;;;24.00;81.40;;;;;;5076899;28;20024;-78
2022/08/13 10:20:32;;;;;;;1.08;0.98;;;24.00;81.80;;;;;;5094914;28;20160;-78
2022/08/13 10:22:59;;;;;;;1.73;1.10;;;24.00;83.40;;;;;;5094949;28;20059;-77
2022/08/13 10:25:25;;;;;;;1.05;1.05;;;23.90;83.10;;;;;;5095116;28;20505;-78
2022/08/13 10:27:51;;;;;;;2.30;1.50;;;23.90;83.30;;;;;;5076790;28;20016;-76
2022/08/13 10:30:21;;;;;;;2.45;1.40;;;23.80;84.20;;;;;;5094507;28;20497;-78
2022/08/13 10:32:47;;;;;;;1.35;1.25;;;23.80;83.90;;;;;;5076848;28;20032;-80
2022/08/13 10:35:17;;;;;;;3.70;1.33;;;23.90;84.40;;;;;;5076582;28;20030;-78
2022/08/13 10:37:47;;;;;;;2.50;1.50;;;24.00;84.30;;;;;;5076812;28;20020;-78
2022/08/13 10:40:16;;;;;;;1.85;1.30;;;24.00;84.70;;;;;;5094661;28;20099;-78
2022/08/13 10:42:44;;;;;;;1.67;1.58;;;24.10;85.10;;;;;;5093847;28;20072;-74
2022/08/13 10:45:12;;;;;;;1.77;1.67;;;24.20;85.20;;;;;;5093891;28;20032;-76
2022/08/13 10:47:45;;;;;;;1.50;1.40;;;24.20;86.10;;;;;;5076219;28;20627;-77
2022/08/13 10:50:13;;;;;;;2.15;1.77;;;24.20;86.50;;;;;;5076511;28;20027;-79
2022/08/13 10:52:38;;;;;;;1.38;1.27;;;24.30;86.50;;;;;;5094311;28;20502;-77
2022/08/13 10:55:08;;;;;;;3.03;1.40;;;24.40;87.70;;;;;;5093853;28;20028;-77
2022/08/13 10:57:37;;;;;;;1.70;1.30;;;24.40;87.20;;;;;;5075607;28;20612;-79
2022/08/13 11:00:05;;;;;;;3.33;1.83;;;24.40;85.90;;;;;;5094523;28;20032;-76
2022/08/13 11:02:30;;;;;;;2.08;1.50;;;24.30;86.40;;;;;;5076225;28;20043;-76
2022/08/13 11:04:56;;;;;;;1.65;1.20;;;24.20;87.00;;;;;;5094335;28;20050;-78
2022/08/13 11:07:22;;;;;;;2.63;1.35;;;24.10;87.00;;;;;;5093931;28;20471;-76
2022/08/13 11:09:49;;;;;;;1.67;1.58;;;24.10;86.60;;;;;;5075238;28;20047;-77
2022/08/13 11:12:16;;;;;;;3.58;1.33;;;24.10;86.00;;;;;;5093881;28;20031;-76
2022/08/13 11:14:42;;;;;;;1.13;0.95;;;23.90;83.60;;;;;;5093936;28;20016;-80
2022/08/13 11:17:09;;;;;;;1.10;1.00;;;23.60;83.20;;;;;;5093341;28;20025;-80
2022/08/13 11:19:38;;;;;;;1.10;1.05;;;23.50;84.00;;;;;;5093592;28;20032;-76
2022/08/13 11:22:04;;;;;;;1.92;0.68;;;23.60;85.00;;;;;;5093712;28;20024;-76
2022/08/13 11:24:30;;;;;;;1.67;1.35;;;23.40;85.10;;;;;;5094246;28;20681;-74
2022/08/13 11:26:55;;;;;;;1.52;1.02;;;23.10;86.90;;;;;;5076074;28;20418;-77
2022/08/13 11:29:21;;;;;;;2.53;1.17;;;23.20;87.10;;;;;;5093505;28;20020;-77
2022/08/13 11:31:46;;;;;;;1.73;1.35;;;23.40;86.50;;;;;;5074586;28;20024;-77
2022/08/13 11:34:12;;;;;;;0.93;0.93;;;23.50;86.10;;;;;;5093533;28;20024;-78
2022/08/13 11:36:38;;;;;;;1.00;1.00;;;23.60;85.30;;;;;;5093238;28;20077;-77
2022/08/13 11:39:04;;;;;;;0.90;0.80;;;23.60;85.50;;;;;;5093132;28;20026;-78
2022/08/13 11:41:29;;;;;;;1.40;1.27;;;23.70;85.10;;;;;;5092830;28;20069;-78
2022/08/13 11:43:55;;;;;;;1.13;0.90;;;23.60;85.50;;;;;;5092866;28;20379;-78
2022/08/13 11:46:21;;;;;;;1.25;1.15;;;23.70;85.90;;;;;;5092860;28;20096;-77
2022/08/13 11:48:48;;;;;;;1.27;1.10;;;23.70;85.80;;;;;;5092722;28;20028;-77
2022/08/13 11:51:14;;;;;;;0.70;0.70;;;23.60;83.80;;;;;;5092922;28;20046;-78
2022/08/13 11:53:40;;;;;;;0.88;0.80;;;23.70;84.10;;;;;;5092980;28;20024;-78
2022/08/13 11:56:06;;;;;;;2.13;1.25;;;23.60;85.30;;;;;;5074813;28;20077;-80
2022/08/13 11:58:33;;;;;;;2.15;1.08;;;23.20;84.90;;;;;;5074510;28;20379;-76
2022/08/13 12:00:59;;;;;;;1.00;0.80;;;22.90;85.30;;;;;;5093050;28;20024;-79
2022/08/13 12:03:25;;;;;;;1.50;1.38;;;22.90;86.70;;;;;;5092615;28;20044;-77
2022/08/13 12:05:51;;;;;;;1.63;1.05;;;22.80;86.90;;;;;;5093151;28;20020;-80
2022/08/13 12:08:18;;;;;;;1.10;1.00;;;22.90;87.60;;;;;;5092670;28;20028;-76
2022/08/13 12:10:45;;;;;;;2.58;1.30;;;23.00;88.50;;;;;;5091948;28;20016;-78
2022/08/13 12:13:11;;;;;;;2.47;1.30;;;23.20;87.60;;;;;;5091803;28;20032;-79
2022/08/13 12:15:37;;;;;;;1.13;1.05;;;23.20;85.40;;;;;;5092564;28;20074;-78
2022/08/13 12:18:03;;;;;;;1.35;1.10;;;23.10;85.80;;;;;;5092344;28;20038;-79
2022/08/13 12:20:29;;;;;;;2.85;1.33;;;23.00;86.60;;;;;;5092436;28;20044;-76
2022/08/13 12:22:57;;;;;;;3.55;1.10;;;23.00;87.10;;;;;;5074184;28;20032;-77
2022/08/13 12:25:25;;;;;;;1.42;1.35;;;22.90;87.30;;;;;;5092208;28;20111;-81
2022/08/13 12:28:07;;;;;;;3.10;1.02;;;22.90;87.40;;;;;;5092191;28;20008;-80
2022/08/13 12:30:32;;;;;;;1.05;1.05;;;22.80;87.00;;;;;;5092356;28;20062;-77
2022/08/13 12:32:58;;;;;;;1.25;1.00;;;22.80;86.80;;;;;;5092384;28;20020;-78
2022/08/13 12:35:23;;;;;;;1.30;1.20;;;22.90;87.70;;;;;;5074045;28;20031;-78
2022/08/13 12:37:49;;;;;;;1.38;1.00;;;22.90;87.00;;;;;;5092241;28;20012;-79
2022/08/13 12:40:15;;;;;;;1.20;1.10;;;23.00;88.20;;;;;;5092000;28;20029;-80
2022/08/13 12:42:40;;;;;;;1.50;1.20;;;23.20;87.00;;;;;;5092209;28;20020;-78
2022/08/13 12:45:07;;;;;;;1.67;1.40;;;23.40;87.10;;;;;;5074201;28;20534;-78
2022/08/13 12:47:33;;;;;;;2.13;1.45;;;23.70;85.60;;;;;;5073976;28;20166;-79
2022/08/13 12:49:59;;;;;;;2.53;1.10;;;23.80;85.70;;;;;;5092183;28;20128;-78
2022/08/13 12:52:24;;;;;;;1.05;0.95;;;23.90;85.50;;;;;;5073784;28;20040;-79
2022/08/13 12:54:50;;;;;;;2.92;1.05;;;23.70;85.80;;;;;;5091672;28;20028;-75
2022/08/13 12:57:15;;;;;;;1.13;1.13;;;23.90;85.30;;;;;;5091503;28;20027;-78
2022/08/13 12:59:41;;;;;;;1.48;1.38;;;24.00;85.60;;;;;;5091997;28;20467;-78
2022/08/13 13:02:08;;;;;;;1.27;1.17;;;23.90;85.20;;;;;;5073570;28;20486;-78
2022/08/13 13:04:35;;;;;;;1.48;1.20;;;24.00;85.10;;;;;;5091944;28;20032;-79
2022/08/13 13:07:00;;;;;;;1.10;1.00;;;24.10;83.70;;;;;;5091465;28;20063;-78
2022/08/13 13:09:26;;;;;;;1.20;1.10;;;24.20;82.80;;;;;;5091580;28;20044;-80
2022/08/13 13:11:52;;;;;;;1.55;1.45;;;24.30;83.00;;;;;;5091555;28;20077;-78